Time;durP1;ratioP1;P1;durP2;ratioP2;P2;SDS_P1;SDS_P2;PMS_P1;PMS_P2;Temp;Humidity;BMP_temperature;BMP_pressure;BME280_temperature;BME280_humidity;BME280_pressure;Samples;Min_cycle;Max_cycle;Signal;HPM_P1;HPM_P2
2023/10/22 00:02:11;;;;;;;2.40;0.70;;;16.40;99.90;;;;;;5072611;28;20593;-77
2023/10/22 00:04:40;;;;;;;3.00;0.83;;;16.50;99.90;;;;;;5090998;28;20585;-77
2023/10/22 00:07:07;;;;;;;2.13;0.53;;;16.40;99.90;;;;;;5072682;28;20661;-77
2023/10/22 00:09:33;;;;;;;2.93;1.00;;;16.40;99.90;;;;;;5066626;28;20585;-77
2023/10/22 00:11:59;;;;;;;3.43;0.73;;;16.40;99.90;;;;;;5070893;28;20588;-77
2023/10/22 00:14:24;;;;;;;2.90;0.60;;;16.40;99.90;;;;;;5090887;28;20949;-76
2023/10/22 00:16:50;;;;;;;4.10;1.03;;;16.30;99.90;;;;;;5072896;28;20203;-77
2023/10/22 00:19:16;;;;;;;4.23;0.80;;;16.40;99.90;;;;;;5075303;28;20576;-77
2023/10/22 00:21:41;;;;;;;2.40;0.60;;;16.30;99.90;;;;;;5082910;28;20176;-77
2023/10/22 00:24:08;;;;;;;2.70;0.77;;;16.30;99.90;;;;;;5082007;28;20229;-77
2023/10/22 00:26:34;;;;;;;2.27;0.63;;;16.30;99.90;;;;;;5064572;28;20211;-77
2023/10/22 00:29:00;;;;;;;2.27;0.80;;;16.30;99.90;;;;;;5071044;28;20631;-77
2023/10/22 00:31:26;;;;;;;2.80;0.60;;;16.20;99.90;;;;;;5054557;28;20577;-77
2023/10/22 00:33:52;;;;;;;4.30;1.10;;;16.20;99.90;;;;;;5071510;28;20676;-77
2023/10/22 00:36:18;;;;;;;2.03;0.70;;;16.20;99.90;;;;;;5072654;28;20245;-77
2023/10/22 00:38:43;;;;;;;1.97;0.50;;;16.20;99.90;;;;;;5056586;28;20404;-77
2023/10/22 00:41:09;;;;;;;2.33;0.73;;;16.10;99.90;;;;;;5076210;28;20179;-77
2023/10/22 00:43:35;;;;;;;3.63;0.77;;;16.10;99.90;;;;;;5086525;28;20262;-77
2023/10/22 00:46:02;;;;;;;2.77;1.00;;;16.10;99.90;;;;;;5068071;28;20704;-77
2023/10/22 00:48:29;;;;;;;3.00;0.60;;;16.10;99.90;;;;;;5068614;28;20589;-77
2023/10/22 00:50:56;;;;;;;2.07;0.70;;;16.00;99.90;;;;;;5059229;28;20592;-77
2023/10/22 00:53:25;;;;;;;2.13;0.70;;;16.00;99.90;;;;;;5052706;28;20596;-77
2023/10/22 00:55:51;;;;;;;2.27;0.60;;;16.00;99.90;;;;;;5076312;28;20632;-77
2023/10/22 00:58:18;;;;;;;1.97;0.60;;;15.90;99.90;;;;;;5086186;28;20578;-77
2023/10/22 01:00:45;;;;;;;4.87;0.70;;;15.90;99.90;;;;;;5068056;28;20187;-77
2023/10/22 01:03:11;;;;;;;4.07;0.60;;;15.80;99.90;;;;;;5075885;28;20613;-77
2023/10/22 01:05:38;;;;;;;2.67;0.70;;;15.80;99.90;;;;;;5076115;28;20709;-77
2023/10/22 01:08:08;;;;;;;3.00;0.77;;;15.80;99.90;;;;;;5065686;28;20579;-77
2023/10/22 01:10:52;;;;;;;3.57;0.60;;;15.70;99.90;;;;;;5073596;28;20957;-76
2023/10/22 01:13:18;;;;;;;2.33;0.70;;;15.70;99.90;;;;;;5039272;28;20582;-76
2023/10/22 01:15:44;;;;;;;3.00;0.70;;;15.70;99.90;;;;;;5064127;28;20601;-77
2023/10/22 01:18:09;;;;;;;2.10;0.60;;;15.70;99.90;;;;;;5048958;28;20242;-77
2023/10/22 01:20:35;;;;;;;2.77;0.80;;;15.60;99.90;;;;;;5065118;28;20241;-77
2023/10/22 01:23:01;;;;;;;2.57;0.60;;;15.60;99.90;;;;;;5073150;28;20172;-77
2023/10/22 01:25:27;;;;;;;2.47;0.60;;;15.60;99.90;;;;;;5048208;28;20226;-77
2023/10/22 01:27:53;;;;;;;3.73;0.67;;;15.60;99.90;;;;;;5048773;28;20582;-77
2023/10/22 01:30:18;;;;;;;3.40;0.70;;;15.60;99.90;;;;;;5054037;28;20598;-77
2023/10/22 01:32:44;;;;;;;4.57;0.80;;;15.70;99.90;;;;;;5053345;28;20638;-77
2023/10/22 01:35:12;;;;;;;1.90;0.70;;;15.60;99.90;;;;;;5057931;28;20180;-77
2023/10/22 01:37:37;;;;;;;1.40;0.60;;;15.70;99.90;;;;;;5058860;28;20175;-76
2023/10/22 01:40:03;;;;;;;3.10;0.60;;;15.60;99.90;;;;;;5059131;28;20713;-77
2023/10/22 01:42:31;;;;;;;2.93;0.70;;;15.70;99.90;;;;;;5085066;28;20262;-77
2023/10/22 01:44:57;;;;;;;1.50;0.50;;;15.70;99.90;;;;;;5058532;28;20613;-77
2023/10/22 01:47:23;;;;;;;1.73;0.60;;;15.70;99.90;;;;;;5071431;28;20625;-77
2023/10/22 01:49:48;;;;;;;3.20;0.80;;;15.70;99.90;;;;;;5067439;28;20619;-77
2023/10/22 01:52:14;;;;;;;2.53;0.60;;;15.70;99.90;;;;;;5040641;28;20168;-77
2023/10/22 01:54:40;;;;;;;1.83;0.60;;;15.70;99.90;;;;;;5093354;28;20972;-77
2023/10/22 01:57:07;;;;;;;1.43;0.60;;;15.70;99.90;;;;;;5093096;28;20214;-77
2023/10/22 01:59:33;;;;;;;1.70;0.60;;;15.70;99.90;;;;;;5075035;28;20597;-77
2023/10/22 02:01:58;;;;;;;2.73;0.80;;;15.70;99.90;;;;;;5065640;28;20589;-77
2023/10/22 02:04:24;;;;;;;3.90;0.87;;;15.60;99.90;;;;;;5050956;28;20590;-77
2023/10/22 02:06:50;;;;;;;2.20;0.70;;;15.60;99.90;;;;;;5092963;28;20217;-76
2023/10/22 02:09:17;;;;;;;3.90;0.60;;;15.60;99.90;;;;;;5074704;28;20172;-77
2023/10/22 02:11:43;;;;;;;1.77;0.50;;;15.60;99.90;;;;;;5057850;28;20566;-76
2023/10/22 02:14:08;;;;;;;1.90;0.60;;;15.60;99.90;;;;;;5092967;28;20577;-77
2023/10/22 02:16:34;;;;;;;1.30;0.50;;;15.50;99.90;;;;;;5074555;28;20679;-76
2023/10/22 02:19:00;;;;;;;5.53;0.67;;;15.50;99.90;;;;;;5052841;28;20609;-76
2023/10/22 02:21:26;;;;;;;1.40;0.50;;;15.50;99.90;;;;;;5067542;28;20175;-77
2023/10/22 02:23:52;;;;;;;1.53;0.50;;;15.50;99.90;;;;;;5081715;28;20168;-77
2023/10/22 02:26:19;;;;;;;1.73;0.50;;;15.50;99.90;;;;;;5046142;28;20688;-77
2023/10/22 02:28:45;;;;;;;2.47;0.60;;;15.50;99.90;;;;;;5062900;28;20606;-77
2023/10/22 02:31:10;;;;;;;1.20;0.50;;;15.50;99.90;;;;;;5054391;28;21194;-76
2023/10/22 02:33:38;;;;;;;2.70;0.60;;;15.50;99.90;;;;;;5086223;28;20641;-77
2023/10/22 02:36:06;;;;;;;2.60;0.60;;;15.50;99.90;;;;;;5074312;28;20211;-76
2023/10/22 02:38:35;;;;;;;2.13;0.50;;;15.50;99.90;;;;;;5092449;28;20616;-76
2023/10/22 02:41:01;;;;;;;7.10;0.67;;;15.50;99.90;;;;;;5074344;28;20586;-76
2023/10/22 02:43:26;;;;;;;3.33;0.63;;;15.50;99.90;;;;;;5057158;28;20585;-76
2023/10/22 02:45:54;;;;;;;2.60;0.50;;;15.50;99.90;;;;;;5074153;28;20219;-76
2023/10/22 02:48:20;;;;;;;2.33;0.60;;;15.40;99.90;;;;;;5092243;28;20306;-77
2023/10/22 02:50:47;;;;;;;1.50;0.50;;;15.50;99.90;;;;;;5067351;28;20589;-77
2023/10/22 02:53:13;;;;;;;2.03;0.50;;;15.50;99.90;;;;;;5072717;28;20597;-76
2023/10/22 02:55:39;;;;;;;1.70;0.50;;;15.40;99.90;;;;;;5057376;28;21186;-77
2023/10/22 02:58:05;;;;;;;2.13;0.60;;;15.50;99.90;;;;;;5074356;28;20585;-77
2023/10/22 03:00:33;;;;;;;2.53;0.60;;;15.50;99.90;;;;;;5072976;28;20583;-76
2023/10/22 03:02:58;;;;;;;2.23;0.53;;;15.50;99.90;;;;;;5053680;28;20583;-77
2023/10/22 03:05:25;;;;;;;1.43;0.63;;;15.40;99.90;;;;;;5054116;28;21010;-76
2023/10/22 03:07:51;;;;;;;3.43;0.60;;;15.40;99.90;;;;;;5053912;28;20634;-77
2023/10/22 03:10:16;;;;;;;2.70;0.40;;;15.40;99.90;;;;;;5071800;28;20188;-77
2023/10/22 03:12:42;;;;;;;1.50;0.50;;;15.40;99.90;;;;;;5036967;28;20176;-76
2023/10/22 03:15:09;;;;;;;4.87;0.50;;;15.40;99.90;;;;;;5072243;28;20183;-76
2023/10/22 03:17:36;;;;;;;1.60;0.50;;;15.40;99.90;;;;;;5072704;28;20172;-77
2023/10/22 03:20:03;;;;;;;2.70;0.50;;;15.40;99.90;;;;;;5038370;28;20579;-77
2023/10/22 03:22:30;;;;;;;2.20;0.60;;;15.40;99.90;;;;;;5054467;28;20575;-77
2023/10/22 03:24:56;;;;;;;1.80;0.47;;;15.40;99.90;;;;;;5054524;28;20594;-77
2023/10/22 03:27:22;;;;;;;1.20;0.40;;;15.30;99.90;;;;;;5072362;28;20645;-76
2023/10/22 03:29:48;;;;;;;1.20;0.40;;;15.30;99.90;;;;;;5045094;28;20668;-76
2023/10/22 03:32:14;;;;;;;1.30;0.40;;;15.30;99.90;;;;;;5074617;28;20589;-76
2023/10/22 03:34:40;;;;;;;1.50;0.50;;;15.40;99.90;;;;;;5066281;28;20275;-76
2023/10/22 03:37:08;;;;;;;1.20;0.40;;;15.30;99.90;;;;;;5086161;28;20649;-76
2023/10/22 03:39:36;;;;;;;1.33;0.43;;;15.40;99.90;;;;;;5062590;28;20642;-76
2023/10/22 03:42:02;;;;;;;1.40;0.43;;;15.40;99.90;;;;;;5064456;28;20598;-76
2023/10/22 03:44:29;;;;;;;3.33;0.70;;;15.40;99.90;;;;;;5079572;28;20953;-76
2023/10/22 03:46:55;;;;;;;2.23;0.53;;;15.40;99.90;;;;;;5082066;28;20663;-77
2023/10/22 03:49:20;;;;;;;1.20;0.40;;;15.40;99.90;;;;;;5085379;28;20650;-77
2023/10/22 03:51:46;;;;;;;1.10;0.30;;;15.40;99.90;;;;;;5104469;28;20610;-76
2023/10/22 03:54:12;;;;;;;1.40;0.50;;;15.40;99.90;;;;;;5083604;28;20167;-76
2023/10/22 03:56:37;;;;;;;1.43;0.50;;;15.40;99.90;;;;;;5085533;28;20195;-76
2023/10/22 03:59:03;;;;;;;1.43;0.40;;;15.50;99.90;;;;;;5074620;28;20236;-76
2023/10/22 04:01:29;;;;;;;1.20;0.40;;;15.50;99.90;;;;;;5088222;28;20170;-76
2023/10/22 04:03:54;;;;;;;1.40;0.40;;;15.50;99.90;;;;;;5114832;28;20163;-77
2023/10/22 04:06:20;;;;;;;1.10;0.37;;;15.50;99.90;;;;;;5113815;28;20274;-77
2023/10/22 04:08:46;;;;;;;1.70;0.43;;;15.50;99.90;;;;;;5094202;28;20167;-76
2023/10/22 04:11:12;;;;;;;1.20;0.40;;;15.60;99.90;;;;;;5084017;28;20172;-76
2023/10/22 04:13:37;;;;;;;1.30;0.40;;;15.60;99.90;;;;;;5095659;28;20424;-76
2023/10/22 04:16:03;;;;;;;1.20;0.40;;;15.60;99.90;;;;;;5072166;28;20294;-76
2023/10/22 04:18:29;;;;;;;1.40;0.40;;;15.60;99.90;;;;;;5079677;28;20202;-76
2023/10/22 04:20:55;;;;;;;1.10;0.40;;;15.60;99.90;;;;;;5079666;28;20617;-77
2023/10/22 04:23:20;;;;;;;1.30;0.40;;;15.60;99.90;;;;;;5079258;28;20572;-76
2023/10/22 04:25:46;;;;;;;1.37;0.40;;;15.60;99.90;;;;;;5079526;28;20229;-77
2023/10/22 04:28:13;;;;;;;1.10;0.40;;;15.60;99.90;;;;;;5079578;28;20622;-77
2023/10/22 04:30:40;;;;;;;1.37;0.40;;;15.60;99.90;;;;;;5079605;28;20581;-77
2023/10/22 04:33:07;;;;;;;1.10;0.37;;;15.60;99.90;;;;;;5079146;28;20586;-76
2023/10/22 04:35:34;;;;;;;1.10;0.40;;;15.60;99.90;;;;;;5097296;28;20968;-76
2023/10/22 04:38:00;;;;;;;1.50;0.40;;;15.60;99.90;;;;;;5097541;28;20573;-76
2023/10/22 04:40:33;;;;;;;4.60;0.47;;;15.60;99.90;;;;;;5079310;28;20674;-77
2023/10/22 04:42:58;;;;;;;1.20;0.40;;;15.60;99.90;;;;;;5097357;28;20613;-77
2023/10/22 04:45:24;;;;;;;1.80;0.50;;;15.60;99.90;;;;;;5079010;28;20648;-76
2023/10/22 04:47:50;;;;;;;1.20;0.40;;;15.60;99.90;;;;;;5079213;28;20196;-76
2023/10/22 04:50:16;;;;;;;1.20;0.40;;;15.60;99.90;;;;;;5079378;28;20588;-76
2023/10/22 04:52:42;;;;;;;1.40;0.40;;;15.50;99.90;;;;;;5082462;28;20628;-76
2023/10/22 04:55:11;;;;;;;1.97;0.40;;;15.50;99.90;;;;;;5096984;28;20172;-76
2023/10/22 04:57:36;;;;;;;1.40;0.50;;;15.50;99.90;;;;;;5079243;28;20179;-76
2023/10/22 05:00:07;;;;;;;1.30;0.40;;;15.50;99.90;;;;;;5079166;28;20582;-76
2023/10/22 05:02:33;;;;;;;1.30;0.40;;;15.50;99.90;;;;;;5081840;28;20611;-77
2023/10/22 05:04:59;;;;;;;1.30;0.40;;;15.50;99.90;;;;;;5078949;28;20590;-76
2023/10/22 05:07:25;;;;;;;1.20;0.40;;;15.50;99.90;;;;;;5079064;28;20629;-77
2023/10/22 05:09:50;;;;;;;1.17;0.37;;;15.40;99.90;;;;;;5078964;28;20182;-77
2023/10/22 05:12:16;;;;;;;1.20;0.40;;;15.50;99.90;;;;;;5078782;28;20166;-77
2023/10/22 05:14:42;;;;;;;1.37;0.37;;;15.50;99.90;;;;;;5079039;28;20250;-76
2023/10/22 05:17:08;;;;;;;1.37;0.40;;;15.50;99.90;;;;;;5078882;28;20762;-77
2023/10/22 05:19:34;;;;;;;1.20;0.40;;;15.50;99.90;;;;;;5078982;28;20637;-77
2023/10/22 05:22:00;;;;;;;1.27;0.40;;;15.50;99.90;;;;;;5078610;28;20206;-77
2023/10/22 05:24:26;;;;;;;1.20;0.40;;;15.50;99.90;;;;;;5096793;28;20585;-77
2023/10/22 05:26:52;;;;;;;1.20;0.40;;;15.50;99.90;;;;;;5076526;28;20641;-77
2023/10/22 05:29:18;;;;;;;1.60;0.40;;;15.50;99.90;;;;;;5095933;28;21146;-76
2023/10/22 05:31:44;;;;;;;1.30;0.40;;;15.60;99.90;;;;;;5068950;28;20580;-76
2023/10/22 05:34:10;;;;;;;1.53;0.40;;;15.50;99.90;;;;;;5075228;28;20172;-77
2023/10/22 05:36:35;;;;;;;1.60;0.50;;;15.60;99.90;;;;;;5075386;28;20191;-76
2023/10/22 05:39:01;;;;;;;2.37;0.40;;;15.60;99.90;;;;;;5075598;28;20171;-77
2023/10/22 05:41:30;;;;;;;1.20;0.40;;;15.60;99.90;;;;;;5075380;28;20674;-77
2023/10/22 05:44:01;;;;;;;1.20;0.40;;;15.60;99.90;;;;;;5075325;28;20593;-77
2023/10/22 05:46:34;;;;;;;1.10;0.40;;;15.60;99.90;;;;;;5093185;28;20685;-77
2023/10/22 05:49:03;;;;;;;1.20;0.40;;;15.60;99.90;;;;;;5093334;28;20620;-77
2023/10/22 05:51:29;;;;;;;1.40;0.40;;;15.70;99.90;;;;;;5093267;28;20639;-77
2023/10/22 05:53:55;;;;;;;1.50;0.40;;;15.60;99.90;;;;;;5093276;28;20582;-77
2023/10/22 05:56:23;;;;;;;1.17;0.40;;;15.60;99.90;;;;;;5075007;28;20620;-77
2023/10/22 05:58:49;;;;;;;1.50;0.40;;;15.70;99.90;;;;;;5058309;28;20179;-77
2023/10/22 06:01:14;;;;;;;1.40;0.40;;;15.70;99.90;;;;;;5076477;28;20648;-77
2023/10/22 06:03:40;;;;;;;1.10;0.40;;;15.70;99.90;;;;;;5074686;28;20581;-77
2023/10/22 06:06:06;;;;;;;1.20;0.40;;;15.70;99.90;;;;;;5078187;28;20211;-77
2023/10/22 06:08:32;;;;;;;1.30;0.40;;;15.80;99.90;;;;;;5093123;28;20578;-77
2023/10/22 06:10:58;;;;;;;1.53;0.50;;;15.80;99.90;;;;;;5074746;28;20172;-77
2023/10/22 06:13:23;;;;;;;1.30;0.40;;;15.80;99.90;;;;;;5092637;28;20179;-77
2023/10/22 06:15:55;;;;;;;1.13;0.40;;;15.80;99.90;;;;;;5074799;28;20199;-77
2023/10/22 06:18:20;;;;;;;1.40;0.43;;;15.70;99.90;;;;;;5074729;28;20292;-76
2023/10/22 06:20:46;;;;;;;1.83;0.40;;;15.50;99.90;;;;;;5058230;28;20694;-77
2023/10/22 06:23:11;;;;;;;1.20;0.50;;;15.40;99.90;;;;;;5074339;28;20585;-76
2023/10/22 06:25:37;;;;;;;1.70;0.40;;;15.30;99.90;;;;;;5072096;28;20555;-77
2023/10/22 06:28:03;;;;;;;1.80;0.50;;;15.20;99.90;;;;;;5072427;28;20184;-77
2023/10/22 06:30:29;;;;;;;1.47;0.50;;;15.10;99.90;;;;;;5074993;28;20275;-76
2023/10/22 06:32:56;;;;;;;1.20;0.40;;;15.00;99.90;;;;;;5081631;28;21234;-77
2023/10/22 06:35:26;;;;;;;1.20;0.40;;;14.90;99.90;;;;;;5068665;28;20978;-77
2023/10/22 06:37:52;;;;;;;1.77;0.50;;;14.80;99.90;;;;;;5047882;28;20586;-77
2023/10/22 06:40:22;;;;;;;2.40;0.60;;;14.80;99.90;;;;;;5039836;28;20946;-77
2023/10/22 06:42:48;;;;;;;1.77;0.50;;;14.80;99.90;;;;;;5061158;28;20896;-76
2023/10/22 06:45:15;;;;;;;1.30;0.50;;;14.70;99.90;;;;;;5053824;28;20653;-77
2023/10/22 06:47:41;;;;;;;1.47;0.40;;;14.70;99.90;;;;;;5071077;28;20985;-76
2023/10/22 06:50:09;;;;;;;2.30;0.47;;;14.70;99.90;;;;;;5053695;28;20574;-77
2023/10/22 06:52:35;;;;;;;2.13;0.50;;;14.70;99.90;;;;;;5084769;28;21001;-76
2023/10/22 06:55:01;;;;;;;1.20;0.40;;;14.70;99.90;;;;;;5092020;28;20562;-76
2023/10/22 06:57:27;;;;;;;1.20;0.40;;;14.60;99.90;;;;;;5073873;28;20639;-76
2023/10/22 06:59:55;;;;;;;1.20;0.50;;;14.60;99.90;;;;;;5073902;28;20915;-76
2023/10/22 07:02:22;;;;;;;1.60;0.40;;;14.60;99.90;;;;;;5073567;28;20540;-76
2023/10/22 07:04:56;;;;;;;2.03;0.50;;;14.60;99.90;;;;;;5092226;28;20627;-76
2023/10/22 07:07:22;;;;;;;1.20;0.40;;;14.60;99.90;;;;;;5073525;28;20712;-77
2023/10/22 07:09:48;;;;;;;1.50;0.50;;;14.60;99.90;;;;;;5056945;28;20574;-76
2023/10/22 07:12:15;;;;;;;1.60;0.50;;;14.60;99.90;;;;;;5091414;28;20596;-77
2023/10/22 07:14:41;;;;;;;1.30;0.50;;;14.60;99.90;;;;;;5091726;28;20597;-76
2023/10/22 07:17:07;;;;;;;1.83;0.40;;;14.60;99.90;;;;;;5049158;28;20618;-75
2023/10/22 07:19:33;;;;;;;1.87;0.50;;;14.60;99.90;;;;;;5084960;28;20577;-75
2023/10/22 07:21:59;;;;;;;1.67;0.50;;;14.50;99.90;;;;;;5091554;28;20578;-75
2023/10/22 07:24:25;;;;;;;1.10;0.40;;;14.60;99.90;;;;;;5091742;28;20586;-75
2023/10/22 07:26:51;;;;;;;1.23;0.50;;;14.50;99.90;;;;;;5091566;28;21271;-75
2023/10/22 07:29:17;;;;;;;1.33;0.50;;;14.50;99.90;;;;;;5064300;28;20586;-76
2023/10/22 07:31:43;;;;;;;2.20;0.60;;;14.50;99.90;;;;;;5065583;28;20171;-76
2023/10/22 07:34:10;;;;;;;1.50;0.53;;;14.50;99.90;;;;;;5091250;28;20574;-76
2023/10/22 07:36:35;;;;;;;1.30;0.50;;;14.50;99.90;;;;;;5072998;28;20758;-76
2023/10/22 07:39:01;;;;;;;1.93;0.50;;;14.50;99.90;;;;;;5091374;28;20681;-76
2023/10/22 07:41:27;;;;;;;2.37;0.60;;;14.50;99.90;;;;;;5091125;28;20190;-75
2023/10/22 07:43:53;;;;;;;2.07;0.57;;;14.50;99.90;;;;;;5090970;28;20674;-76
2023/10/22 07:46:19;;;;;;;1.70;0.50;;;14.50;99.90;;;;;;5072628;28;20222;-76
2023/10/22 07:48:45;;;;;;;2.30;0.60;;;14.50;99.90;;;;;;5070846;28;21147;-76
2023/10/22 07:51:18;;;;;;;2.90;0.50;;;14.50;99.90;;;;;;5087515;28;20981;-76
2023/10/22 07:53:46;;;;;;;1.33;0.50;;;14.60;99.90;;;;;;5061994;28;20575;-76
2023/10/22 07:56:14;;;;;;;2.13;0.50;;;14.60;99.90;;;;;;5054065;28;20647;-76
2023/10/22 07:58:40;;;;;;;3.10;0.57;;;14.60;99.90;;;;;;5038810;28;20585;-76
2023/10/22 08:01:06;;;;;;;1.43;0.50;;;14.60;99.90;;;;;;5070851;28;20577;-76
2023/10/22 08:03:33;;;;;;;1.37;0.60;;;14.60;99.90;;;;;;5090494;28;20612;-75
2023/10/22 08:06:00;;;;;;;1.50;0.40;;;14.70;99.90;;;;;;5090698;28;20775;-76
2023/10/22 08:08:26;;;;;;;5.03;0.83;;;14.70;99.90;;;;;;5072593;28;20582;-76
2023/10/22 08:10:57;;;;;;;1.90;0.60;;;14.70;99.90;;;;;;5072706;28;20589;-76
2023/10/22 08:13:23;;;;;;;1.87;0.67;;;14.70;99.90;;;;;;5090382;28;20592;-76
2023/10/22 08:15:49;;;;;;;2.83;0.80;;;14.70;99.90;;;;;;5072446;28;20988;-77
2023/10/22 08:18:15;;;;;;;1.83;0.80;;;14.80;99.90;;;;;;5090678;28;20229;-76
2023/10/22 08:20:41;;;;;;;1.40;0.70;;;14.80;99.90;;;;;;5072601;28;20946;-76
2023/10/22 08:23:07;;;;;;;1.60;0.60;;;14.80;99.90;;;;;;5064000;28;20589;-77
2023/10/22 08:25:33;;;;;;;2.50;0.70;;;14.80;99.90;;;;;;5072477;28;20211;-76
2023/10/22 08:27:59;;;;;;;1.80;0.67;;;14.80;99.90;;;;;;5090607;28;20728;-76
2023/10/22 08:30:25;;;;;;;1.57;0.50;;;14.80;99.90;;;;;;5055811;28;21114;-76
2023/10/22 08:32:51;;;;;;;1.40;0.60;;;14.80;99.90;;;;;;5092304;28;20536;-77
2023/10/22 08:35:17;;;;;;;3.10;0.70;;;14.80;99.90;;;;;;5083539;28;20587;-76
2023/10/22 08:37:42;;;;;;;1.20;0.50;;;14.80;99.90;;;;;;5060731;28;20606;-75
2023/10/22 08:40:09;;;;;;;1.33;0.97;;;14.80;99.90;;;;;;5067961;28;20260;-75
2023/10/22 08:42:36;;;;;;;1.40;0.50;;;14.90;99.90;;;;;;5090364;28;20554;-76
2023/10/22 08:45:07;;;;;;;1.67;0.67;;;14.90;99.90;;;;;;5075864;28;20609;-76
2023/10/22 08:47:34;;;;;;;2.73;0.80;;;14.90;99.90;;;;;;5071222;28;20694;-76
2023/10/22 08:50:01;;;;;;;2.13;0.53;;;14.90;99.90;;;;;;5090636;28;20999;-76
2023/10/22 08:52:27;;;;;;;1.47;0.60;;;14.90;99.90;;;;;;5090196;28;20588;-75
2023/10/22 08:54:53;;;;;;;1.70;0.90;;;14.90;99.90;;;;;;5072470;28;20589;-76
2023/10/22 08:57:21;;;;;;;2.30;0.70;;;14.90;99.90;;;;;;5072285;28;21026;-78
2023/10/22 08:59:48;;;;;;;2.13;0.70;;;14.90;99.90;;;;;;5064423;28;20621;-76
2023/10/22 09:02:21;;;;;;;2.33;0.70;;;14.90;99.90;;;;;;5094082;28;21004;-76
2023/10/22 09:04:47;;;;;;;1.50;0.60;;;14.90;99.90;;;;;;5076111;28;20651;-75
2023/10/22 09:07:13;;;;;;;1.40;0.50;;;14.90;99.90;;;;;;5059347;28;20645;-78
2023/10/22 09:09:40;;;;;;;1.80;0.50;;;15.00;99.90;;;;;;5080375;28;20586;-75
2023/10/22 09:12:10;;;;;;;1.67;0.60;;;15.00;99.90;;;;;;5089086;28;20570;-76
2023/10/22 09:14:37;;;;;;;1.30;0.50;;;15.00;99.90;;;;;;5067655;28;20578;-76
2023/10/22 09:17:19;;;;;;;1.30;0.50;;;15.00;99.90;;;;;;5085749;28;20617;-76
2023/10/22 09:19:48;;;;;;;1.60;0.70;;;15.00;99.90;;;;;;5072244;28;20574;-75
2023/10/22 09:22:25;;;;;;;1.30;0.50;;;15.00;99.90;;;;;;5071544;28;20588;-75
2023/10/22 09:24:56;;;;;;;1.20;0.50;;;15.00;99.90;;;;;;5075022;28;20915;-76
2023/10/22 09:27:32;;;;;;;1.20;0.50;;;15.00;99.90;;;;;;5072686;28;20745;-76
2023/10/22 09:29:58;;;;;;;2.03;0.50;;;15.00;99.90;;;;;;5091155;28;20566;-76
2023/10/22 09:32:25;;;;;;;1.40;0.60;;;15.00;99.90;;;;;;5071035;28;20606;-76
2023/10/22 09:34:51;;;;;;;1.30;0.60;;;15.00;99.90;;;;;;5055411;28;20578;-76
2023/10/22 09:37:16;;;;;;;1.30;0.60;;;15.00;99.90;;;;;;5089720;28;20593;-76
2023/10/22 09:39:43;;;;;;;2.03;0.50;;;15.00;99.90;;;;;;5093513;28;20222;-76
2023/10/22 09:42:10;;;;;;;1.40;0.50;;;15.10;99.90;;;;;;5058630;28;20219;-76
2023/10/22 09:44:38;;;;;;;1.77;0.60;;;15.10;99.90;;;;;;5064822;28;20574;-76
2023/10/22 09:47:08;;;;;;;1.40;0.60;;;15.10;99.90;;;;;;5071385;28;20743;-76
2023/10/22 09:49:35;;;;;;;1.60;0.60;;;15.10;99.90;;;;;;5093537;28;20723;-77
2023/10/22 09:52:03;;;;;;;1.30;0.60;;;15.10;99.90;;;;;;5075026;28;20604;-76
2023/10/22 09:54:40;;;;;;;1.30;0.60;;;15.10;99.90;;;;;;5093192;28;20589;-76
2023/10/22 09:57:13;;;;;;;1.33;0.50;;;15.10;99.90;;;;;;5075094;28;20621;-76
2023/10/22 09:59:47;;;;;;;1.20;0.53;;;15.20;99.90;;;;;;5075363;28;20691;-75
2023/10/22 10:02:16;;;;;;;1.43;0.50;;;15.20;99.90;;;;;;5074677;28;20674;-76
2023/10/22 10:04:47;;;;;;;1.60;0.70;;;15.20;99.90;;;;;;5058279;28;20617;-76
2023/10/22 10:07:13;;;;;;;1.30;0.50;;;15.20;99.90;;;;;;5093073;28;20645;-76
2023/10/22 10:09:41;;;;;;;1.30;0.50;;;15.30;99.90;;;;;;5071792;28;20624;-76
2023/10/22 10:12:08;;;;;;;1.50;0.60;;;15.20;99.90;;;;;;5060427;28;20594;-76
2023/10/22 10:14:41;;;;;;;1.90;0.80;;;15.30;99.90;;;;;;5071962;28;20989;-76
2023/10/22 10:17:08;;;;;;;1.93;0.67;;;15.30;99.90;;;;;;5081708;28;21086;-75
2023/10/22 10:19:34;;;;;;;1.80;0.70;;;15.30;99.90;;;;;;5068047;28;21165;-75
2023/10/22 10:22:00;;;;;;;2.50;0.80;;;15.30;99.90;;;;;;5092755;28;20577;-73
2023/10/22 10:24:27;;;;;;;1.33;0.60;;;15.40;99.90;;;;;;5077067;28;20582;-74
2023/10/22 10:26:58;;;;;;;1.50;0.60;;;15.40;99.90;;;;;;5078805;28;20642;-75
2023/10/22 10:29:27;;;;;;;1.90;0.57;;;15.50;99.90;;;;;;5071951;28;20596;-75
2023/10/22 10:31:55;;;;;;;1.20;0.53;;;15.50;99.90;;;;;;5066893;28;20575;-75
2023/10/22 10:34:40;;;;;;;1.50;0.50;;;15.50;99.90;;;;;;5070937;28;20575;-76
2023/10/22 10:37:10;;;;;;;1.33;0.60;;;15.60;99.90;;;;;;5054111;28;20713;-74
2023/10/22 10:39:42;;;;;;;1.23;0.50;;;15.60;99.90;;;;;;5090393;28;20591;-75
2023/10/22 10:42:09;;;;;;;1.47;0.60;;;15.70;99.90;;;;;;5092121;28;20574;-75
2023/10/22 10:45:02;;;;;;;2.10;0.50;;;15.70;99.90;;;;;;5090309;28;20586;-75
2023/10/22 10:47:33;;;;;;;2.13;0.50;;;15.70;99.90;;;;;;5073783;28;20728;-76
2023/10/22 10:50:02;;;;;;;1.20;0.50;;;15.80;99.90;;;;;;5071850;28;21185;-75
2023/10/22 10:52:45;;;;;;;1.23;0.50;;;15.80;99.90;;;;;;5073467;28;20608;-75
2023/10/22 10:55:19;;;;;;;1.70;0.60;;;15.90;99.90;;;;;;5085406;28;20621;-75
2023/10/22 10:57:50;;;;;;;1.83;0.97;;;15.90;99.90;;;;;;5072990;28;20636;-75
2023/10/22 11:00:30;;;;;;;4.50;1.37;;;15.90;99.90;;;;;;5080376;28;20595;-76
2023/10/22 11:03:04;;;;;;;2.43;1.83;;;15.90;99.90;;;;;;5066050;28;20612;-77
2023/10/22 11:05:39;;;;;;;2.43;1.10;;;15.90;99.90;;;;;;5091501;28;20616;-75
2023/10/22 11:08:10;;;;;;;2.33;0.90;;;15.90;99.90;;;;;;5091857;28;20636;-76
2023/10/22 11:10:36;;;;;;;2.17;0.80;;;15.90;99.90;;;;;;5056802;28;20659;-76
2023/10/22 11:13:07;;;;;;;1.30;0.60;;;15.90;99.90;;;;;;5091744;28;20577;-76
2023/10/22 11:15:34;;;;;;;1.30;0.60;;;15.90;99.90;;;;;;5067979;28;20204;-76
2023/10/22 11:18:08;;;;;;;2.43;0.60;;;15.90;99.90;;;;;;5091400;28;20676;-75
2023/10/22 11:20:34;;;;;;;2.23;0.60;;;15.80;99.90;;;;;;5091392;28;20615;-76
2023/10/22 11:23:00;;;;;;;2.47;0.70;;;15.90;99.90;;;;;;5089944;28;20621;-76
2023/10/22 11:25:28;;;;;;;2.70;0.70;;;15.80;99.90;;;;;;5073338;28;21058;-76
2023/10/22 11:27:54;;;;;;;1.30;0.50;;;15.80;99.90;;;;;;5075751;28;20656;-76
2023/10/22 11:30:34;;;;;;;2.13;0.70;;;15.80;99.90;;;;;;5071192;28;20585;-76
2023/10/22 11:33:00;;;;;;;2.37;0.70;;;15.80;99.90;;;;;;5091142;28;20901;-75
2023/10/22 11:35:32;;;;;;;1.40;0.57;;;15.80;99.90;;;;;;5048472;28;20606;-75
2023/10/22 11:37:58;;;;;;;1.50;0.70;;;15.80;99.90;;;;;;5092148;28;20573;-76
2023/10/22 11:40:25;;;;;;;1.20;0.50;;;15.80;99.90;;;;;;5075059;28;20989;-76
2023/10/22 11:42:52;;;;;;;2.00;0.70;;;15.80;99.90;;;;;;5068790;28;20594;-75
2023/10/22 11:45:18;;;;;;;1.60;0.63;;;15.90;99.90;;;;;;5072708;28;20606;-76
2023/10/22 11:47:43;;;;;;;1.90;0.70;;;16.00;99.90;;;;;;5072868;28;20664;-76
2023/10/22 11:50:09;;;;;;;1.20;0.50;;;16.10;99.90;;;;;;5089352;28;20225;-76
2023/10/22 11:52:35;;;;;;;1.60;0.60;;;16.20;99.90;;;;;;5090621;28;20186;-76
2023/10/22 11:55:05;;;;;;;3.67;0.63;;;16.30;99.90;;;;;;5072758;28;20585;-75
2023/10/22 11:57:32;;;;;;;1.40;0.70;;;16.30;99.90;;;;;;5090850;28;20168;-75
2023/10/22 11:59:58;;;;;;;1.57;0.70;;;16.40;99.90;;;;;;5087650;28;20578;-76
2023/10/22 12:02:23;;;;;;;1.60;0.80;;;16.40;99.90;;;;;;5056511;28;21004;-75
2023/10/22 12:04:49;;;;;;;1.90;1.00;;;16.50;99.90;;;;;;5090320;28;20175;-75
2023/10/22 12:07:15;;;;;;;2.53;0.80;;;16.60;99.90;;;;;;5072586;28;20268;-76
2023/10/22 12:09:41;;;;;;;3.10;1.00;;;16.70;99.90;;;;;;5090756;28;20240;-76
2023/10/22 12:12:07;;;;;;;1.90;0.80;;;16.80;99.90;;;;;;5090486;28;20585;-76
2023/10/22 12:14:33;;;;;;;2.33;0.87;;;16.90;99.90;;;;;;5076040;28;21246;-76
2023/10/22 12:16:59;;;;;;;2.90;1.00;;;17.00;99.90;;;;;;5048870;28;20637;-76
2023/10/22 12:19:24;;;;;;;1.83;1.23;;;17.10;99.90;;;;;;5090922;28;20188;-75
2023/10/22 12:21:50;;;;;;;2.17;0.90;;;17.20;99.90;;;;;;5090492;28;21055;-75
2023/10/22 12:24:16;;;;;;;3.10;1.13;;;17.20;99.90;;;;;;5090714;28;20184;-75
2023/10/22 12:26:42;;;;;;;2.17;1.00;;;17.30;99.90;;;;;;5064659;28;20758;-75
2023/10/22 12:29:08;;;;;;;3.40;1.00;;;17.30;99.90;;;;;;5074466;28;20617;-75
2023/10/22 12:31:34;;;;;;;2.53;1.07;;;17.30;99.90;;;;;;5072290;28;20831;-76
2023/10/22 12:33:59;;;;;;;2.53;1.60;;;17.30;99.90;;;;;;5069814;28;20181;-76
2023/10/22 12:36:25;;;;;;;2.80;1.53;;;17.30;99.90;;;;;;5074949;28;20669;-76
2023/10/22 12:38:54;;;;;;;3.60;1.30;;;17.30;99.90;;;;;;5076383;28;20187;-75
2023/10/22 12:41:23;;;;;;;2.83;1.70;;;17.20;99.90;;;;;;5059978;28;20171;-75
2023/10/22 12:43:49;;;;;;;2.60;1.57;;;17.10;99.90;;;;;;5094166;28;20999;-75
2023/10/22 12:46:15;;;;;;;2.07;1.30;;;17.10;99.90;;;;;;5076052;28;20728;-76
2023/10/22 12:48:40;;;;;;;2.10;1.30;;;17.10;99.90;;;;;;5094738;28;20581;-76